sensor_id;sensor_type;location;lat;lon;timestamp;P1;durP1;ratioP1;P2;durP2;ratioP2
77111;SDS011;66064;50.226;14.344;2023-02-23T00:03:41;69.55;;;45.47;;
77111;SDS011;66064;50.226;14.344;2023-02-23T00:06:07;58.00;;;35.95;;
77111;SDS011;66064;50.226;14.344;2023-02-23T00:08:34;65.13;;;41.08;;
77111;SDS011;66064;50.226;14.344;2023-02-23T00:11:04;49.40;;;31.17;;
77111;SDS011;66064;50.226;14.344;2023-02-23T00:13:31;53.33;;;33.92;;
77111;SDS011;66064;50.226;14.344;2023-02-23T00:18:32;53.67;;;32.17;;
77111;SDS011;66064;50.226;14.344;2023-02-23T00:23:58;57.58;;;32.53;;
77111;SDS011;66064;50.226;14.344;2023-02-23T00:26:29;44.67;;;29.20;;
77111;SDS011;66064;50.226;14.344;2023-02-23T00:28:58;47.17;;;29.58;;
77111;SDS011;66064;50.226;14.344;2023-02-23T00:31:25;56.42;;;35.22;;
77111;SDS011;66064;50.226;14.344;2023-02-23T00:33:52;50.22;;;33.85;;
77111;SDS011;66064;50.226;14.344;2023-02-23T00:36:22;61.90;;;39.88;;
77111;SDS011;66064;50.226;14.344;2023-02-23T00:38:54;57.20;;;37.75;;
77111;SDS011;66064;50.226;14.344;2023-02-23T00:41:21;74.68;;;44.72;;
77111;SDS011;66064;50.226;14.344;2023-02-23T00:43:49;56.10;;;36.38;;
77111;SDS011;66064;50.226;14.344;2023-02-23T00:46:20;61.78;;;37.30;;
77111;SDS011;66064;50.226;14.344;2023-02-23T00:48:48;61.35;;;34.40;;
77111;SDS011;66064;50.226;14.344;2023-02-23T00:51:15;49.70;;;34.70;;
77111;SDS011;66064;50.226;14.344;2023-02-23T00:53:43;61.42;;;35.92;;
77111;SDS011;66064;50.226;14.344;2023-02-23T00:56:11;57.70;;;34.20;;
77111;SDS011;66064;50.226;14.344;2023-02-23T00:58:38;57.72;;;35.88;;
77111;SDS011;66064;50.226;14.344;2023-02-23T01:01:06;58.67;;;34.95;;
77111;SDS011;66064;50.226;14.344;2023-02-23T01:03:36;58.03;;;33.88;;
77111;SDS011;66064;50.226;14.344;2023-02-23T01:06:05;55.42;;;33.45;;
77111;SDS011;66064;50.226;14.344;2023-02-23T01:08:32;60.78;;;37.28;;
77111;SDS011;66064;50.226;14.344;2023-02-23T01:11:04;62.78;;;37.80;;
77111;SDS011;66064;50.226;14.344;2023-02-23T01:13:37;57.42;;;38.35;;
77111;SDS011;66064;50.226;14.344;2023-02-23T01:16:05;63.67;;;41.60;;
77111;SDS011;66064;50.226;14.344;2023-02-23T01:18:33;68.72;;;40.13;;
77111;SDS011;66064;50.226;14.344;2023-02-23T01:21:00;66.70;;;38.10;;
77111;SDS011;66064;50.226;14.344;2023-02-23T01:23:27;58.85;;;37.53;;
77111;SDS011;66064;50.226;14.344;2023-02-23T01:25:53;59.95;;;38.17;;
77111;SDS011;66064;50.226;14.344;2023-02-23T01:28:18;59.92;;;36.47;;
77111;SDS011;66064;50.226;14.344;2023-02-23T01:30:44;57.85;;;35.78;;
77111;SDS011;66064;50.226;14.344;2023-02-23T01:33:10;58.95;;;35.20;;
77111;SDS011;66064;50.226;14.344;2023-02-23T01:35:38;58.08;;;38.90;;
77111;SDS011;66064;50.226;14.344;2023-02-23T01:38:04;52.83;;;34.17;;
77111;SDS011;66064;50.226;14.344;2023-02-23T01:40:30;61.17;;;37.55;;
77111;SDS011;66064;50.226;14.344;2023-02-23T01:45:41;66.32;;;37.35;;
77111;SDS011;66064;50.226;14.344;2023-02-23T01:48:16;53.90;;;36.50;;
77111;SDS011;66064;50.226;14.344;2023-02-23T01:50:50;54.92;;;35.92;;
77111;SDS011;66064;50.226;14.344;2023-02-23T01:53:20;56.88;;;35.25;;
77111;SDS011;66064;50.226;14.344;2023-02-23T01:55:51;54.97;;;36.17;;
77111;SDS011;66064;50.226;14.344;2023-02-23T01:58:21;52.95;;;32.88;;
77111;SDS011;66064;50.226;14.344;2023-02-23T02:00:50;49.30;;;34.20;;
77111;SDS011;66064;50.226;14.344;2023-02-23T02:03:40;57.05;;;32.92;;
77111;SDS011;66064;50.226;14.344;2023-02-23T02:06:09;45.35;;;30.27;;
77111;SDS011;66064;50.226;14.344;2023-02-23T02:08:39;50.78;;;32.17;;
77111;SDS011;66064;50.226;14.344;2023-02-23T02:11:11;51.35;;;34.50;;
77111;SDS011;66064;50.226;14.344;2023-02-23T02:13:54;46.88;;;32.30;;
77111;SDS011;66064;50.226;14.344;2023-02-23T02:28:43;52.95;;;33.50;;
77111;SDS011;66064;50.226;14.344;2023-02-23T02:31:20;53.72;;;34.33;;
77111;SDS011;66064;50.226;14.344;2023-02-23T02:48:07;49.38;;;32.75;;
77111;SDS011;66064;50.226;14.344;2023-02-23T02:50:26;57.05;;;35.63;;
77111;SDS011;66064;50.226;14.344;2023-02-23T02:53:03;58.97;;;34.22;;
77111;SDS011;66064;50.226;14.344;2023-02-23T02:55:33;84.82;;;45.13;;
77111;SDS011;66064;50.226;14.344;2023-02-23T02:58:03;69.72;;;38.55;;
77111;SDS011;66064;50.226;14.344;2023-02-23T03:00:43;65.90;;;40.88;;
77111;SDS011;66064;50.226;14.344;2023-02-23T03:03:35;49.42;;;32.80;;
77111;SDS011;66064;50.226;14.344;2023-02-23T03:06:31;54.78;;;33.03;;
77111;SDS011;66064;50.226;14.344;2023-02-23T03:09:24;52.90;;;31.17;;
77111;SDS011;66064;50.226;14.344;2023-02-23T03:12:23;50.15;;;31.38;;
77111;SDS011;66064;50.226;14.344;2023-02-23T03:18:18;55.17;;;33.78;;
77111;SDS011;66064;50.226;14.344;2023-02-23T03:21:09;44.67;;;34.70;;
77111;SDS011;66064;50.226;14.344;2023-02-23T03:27:19;54.38;;;32.53;;
77111;SDS011;66064;50.226;14.344;2023-02-23T03:33:36;47.45;;;29.92;;
77111;SDS011;66064;50.226;14.344;2023-02-23T03:36:27;50.95;;;31.95;;
77111;SDS011;66064;50.226;14.344;2023-02-23T03:39:18;49.60;;;31.48;;
77111;SDS011;66064;50.226;14.344;2023-02-23T03:42:14;48.45;;;33.97;;
77111;SDS011;66064;50.226;14.344;2023-02-23T03:45:02;47.58;;;31.85;;
77111;SDS011;66064;50.226;14.344;2023-02-23T03:47:51;51.65;;;35.72;;
77111;SDS011;66064;50.226;14.344;2023-02-23T03:50:42;53.92;;;35.40;;
77111;SDS011;66064;50.226;14.344;2023-02-23T03:53:34;49.92;;;32.42;;
77111;SDS011;66064;50.226;14.344;2023-02-23T03:56:31;49.85;;;29.25;;
77111;SDS011;66064;50.226;14.344;2023-02-23T03:59:19;51.00;;;32.92;;
77111;SDS011;66064;50.226;14.344;2023-02-23T04:02:08;48.45;;;30.38;;
77111;SDS011;66064;50.226;14.344;2023-02-23T04:04:56;49.40;;;33.30;;
77111;SDS011;66064;50.226;14.344;2023-02-23T04:07:45;52.60;;;33.45;;
77111;SDS011;66064;50.226;14.344;2023-02-23T04:10:31;49.30;;;33.63;;
77111;SDS011;66064;50.226;14.344;2023-02-23T04:13:21;50.05;;;33.72;;
77111;SDS011;66064;50.226;14.344;2023-02-23T04:15:55;52.20;;;32.13;;
77111;SDS011;66064;50.226;14.344;2023-02-23T04:18:26;50.28;;;31.05;;
77111;SDS011;66064;50.226;14.344;2023-02-23T04:20:55;58.78;;;34.42;;
77111;SDS011;66064;50.226;14.344;2023-02-23T04:23:23;51.97;;;33.30;;
77111;SDS011;66064;50.226;14.344;2023-02-23T04:25:50;60.55;;;36.45;;
77111;SDS011;66064;50.226;14.344;2023-02-23T04:28:17;89.03;;;58.10;;
77111;SDS011;66064;50.226;14.344;2023-02-23T04:30:43;63.50;;;40.15;;
77111;SDS011;66064;50.226;14.344;2023-02-23T04:33:09;69.38;;;39.72;;
77111;SDS011;66064;50.226;14.344;2023-02-23T04:35:35;58.72;;;33.95;;
77111;SDS011;66064;50.226;14.344;2023-02-23T04:38:02;58.38;;;34.92;;
77111;SDS011;66064;50.226;14.344;2023-02-23T04:40:29;61.65;;;35.33;;
77111;SDS011;66064;50.226;14.344;2023-02-23T04:42:55;72.60;;;43.28;;
77111;SDS011;66064;50.226;14.344;2023-02-23T04:45:21;75.15;;;44.63;;
77111;SDS011;66064;50.226;14.344;2023-02-23T04:47:49;82.07;;;49.75;;
77111;SDS011;66064;50.226;14.344;2023-02-23T04:50:15;72.68;;;42.35;;
77111;SDS011;66064;50.226;14.344;2023-02-23T04:52:42;57.38;;;36.67;;
77111;SDS011;66064;50.226;14.344;2023-02-23T04:55:12;66.80;;;41.00;;
77111;SDS011;66064;50.226;14.344;2023-02-23T04:57:42;65.75;;;41.83;;
77111;SDS011;66064;50.226;14.344;2023-02-23T05:00:08;53.85;;;37.13;;
77111;SDS011;66064;50.226;14.344;2023-02-23T05:02:34;58.83;;;39.85;;
77111;SDS011;66064;50.226;14.344;2023-02-23T05:05:00;56.25;;;34.78;;
77111;SDS011;66064;50.226;14.344;2023-02-23T05:07:26;52.63;;;32.60;;
77111;SDS011;66064;50.226;14.344;2023-02-23T05:09:53;66.40;;;38.58;;
77111;SDS011;66064;50.226;14.344;2023-02-23T05:12:19;67.90;;;43.70;;
77111;SDS011;66064;50.226;14.344;2023-02-23T05:14:46;64.82;;;41.55;;
77111;SDS011;66064;50.226;14.344;2023-02-23T05:17:12;64.78;;;40.58;;
77111;SDS011;66064;50.226;14.344;2023-02-23T05:19:38;65.95;;;39.83;;
77111;SDS011;66064;50.226;14.344;2023-02-23T05:22:04;67.80;;;41.47;;
77111;SDS011;66064;50.226;14.344;2023-02-23T05:24:30;55.85;;;35.42;;
77111;SDS011;66064;50.226;14.344;2023-02-23T05:26:56;54.83;;;35.58;;
77111;SDS011;66064;50.226;14.344;2023-02-23T05:29:23;54.15;;;34.28;;
77111;SDS011;66064;50.226;14.344;2023-02-23T05:31:49;57.42;;;37.47;;
77111;SDS011;66064;50.226;14.344;2023-02-23T05:34:15;58.25;;;37.50;;
77111;SDS011;66064;50.226;14.344;2023-02-23T05:36:41;61.22;;;37.17;;
77111;SDS011;66064;50.226;14.344;2023-02-23T05:39:07;56.90;;;35.45;;
77111;SDS011;66064;50.226;14.344;2023-02-23T05:41:33;51.95;;;35.38;;
77111;SDS011;66064;50.226;14.344;2023-02-23T05:44:00;56.33;;;35.55;;
77111;SDS011;66064;50.226;14.344;2023-02-23T05:46:26;60.65;;;38.78;;
77111;SDS011;66064;50.226;14.344;2023-02-23T05:48:57;60.00;;;39.95;;
77111;SDS011;66064;50.226;14.344;2023-02-23T05:51:25;56.20;;;35.05;;
77111;SDS011;66064;50.226;14.344;2023-02-23T05:53:52;54.88;;;33.97;;
77111;SDS011;66064;50.226;14.344;2023-02-23T05:56:18;57.85;;;32.88;;
77111;SDS011;66064;50.226;14.344;2023-02-23T05:58:47;57.60;;;37.00;;
77111;SDS011;66064;50.226;14.344;2023-02-23T06:01:14;55.42;;;35.53;;
77111;SDS011;66064;50.226;14.344;2023-02-23T06:03:42;58.85;;;35.72;;
77111;SDS011;66064;50.226;14.344;2023-02-23T06:06:09;60.97;;;37.92;;
77111;SDS011;66064;50.226;14.344;2023-02-23T06:08:35;64.05;;;40.97;;
77111;SDS011;66064;50.226;14.344;2023-02-23T06:11:01;63.35;;;41.80;;
77111;SDS011;66064;50.226;14.344;2023-02-23T06:13:28;51.85;;;34.60;;
77111;SDS011;66064;50.226;14.344;2023-02-23T06:15:55;71.70;;;40.30;;
77111;SDS011;66064;50.226;14.344;2023-02-23T06:18:25;78.25;;;48.70;;
77111;SDS011;66064;50.226;14.344;2023-02-23T06:20:51;69.60;;;41.67;;
77111;SDS011;66064;50.226;14.344;2023-02-23T06:23:18;78.60;;;52.50;;
77111;SDS011;66064;50.226;14.344;2023-02-23T06:25:47;81.55;;;48.70;;
77111;SDS011;66064;50.226;14.344;2023-02-23T06:28:13;82.43;;;50.20;;
77111;SDS011;66064;50.226;14.344;2023-02-23T06:30:39;83.85;;;55.42;;
77111;SDS011;66064;50.226;14.344;2023-02-23T06:33:06;78.72;;;45.15;;
77111;SDS011;66064;50.226;14.344;2023-02-23T06:35:32;83.93;;;51.45;;
77111;SDS011;66064;50.226;14.344;2023-02-23T06:37:59;68.15;;;45.75;;
77111;SDS011;66064;50.226;14.344;2023-02-23T06:40:25;70.40;;;46.90;;
77111;SDS011;66064;50.226;14.344;2023-02-23T06:42:51;74.25;;;50.50;;
77111;SDS011;66064;50.226;14.344;2023-02-23T06:45:17;68.97;;;47.65;;
77111;SDS011;66064;50.226;14.344;2023-02-23T06:47:44;63.70;;;40.17;;
77111;SDS011;66064;50.226;14.344;2023-02-23T06:50:11;68.15;;;41.05;;
77111;SDS011;66064;50.226;14.344;2023-02-23T06:52:38;71.75;;;43.22;;
77111;SDS011;66064;50.226;14.344;2023-02-23T06:55:04;69.25;;;44.70;;
77111;SDS011;66064;50.226;14.344;2023-02-23T06:57:31;65.93;;;45.58;;
77111;SDS011;66064;50.226;14.344;2023-02-23T06:59:57;66.40;;;40.50;;
77111;SDS011;66064;50.226;14.344;2023-02-23T07:02:23;68.30;;;42.88;;
77111;SDS011;66064;50.226;14.344;2023-02-23T07:04:49;63.20;;;36.70;;
77111;SDS011;66064;50.226;14.344;2023-02-23T07:07:15;59.15;;;40.05;;
77111;SDS011;66064;50.226;14.344;2023-02-23T07:09:40;58.83;;;40.00;;
77111;SDS011;66064;50.226;14.344;2023-02-23T07:12:07;57.60;;;36.55;;
77111;SDS011;66064;50.226;14.344;2023-02-23T07:14:34;52.03;;;36.47;;
77111;SDS011;66064;50.226;14.344;2023-02-23T07:17:01;49.80;;;31.00;;
77111;SDS011;66064;50.226;14.344;2023-02-23T07:19:26;47.15;;;31.70;;
77111;SDS011;66064;50.226;14.344;2023-02-23T07:21:53;49.33;;;30.98;;
77111;SDS011;66064;50.226;14.344;2023-02-23T07:24:19;50.38;;;34.70;;
77111;SDS011;66064;50.226;14.344;2023-02-23T07:26:46;49.85;;;33.88;;
77111;SDS011;66064;50.226;14.344;2023-02-23T07:29:13;49.25;;;31.73;;
77111;SDS011;66064;50.226;14.344;2023-02-23T07:31:40;53.47;;;32.15;;
77111;SDS011;66064;50.226;14.344;2023-02-23T07:34:06;60.38;;;35.85;;
77111;SDS011;66064;50.226;14.344;2023-02-23T07:36:33;61.95;;;36.08;;
77111;SDS011;66064;50.226;14.344;2023-02-23T07:39:00;61.58;;;38.00;;
77111;SDS011;66064;50.226;14.344;2023-02-23T07:41:26;64.82;;;39.70;;
77111;SDS011;66064;50.226;14.344;2023-02-23T07:43:52;55.05;;;36.22;;
77111;SDS011;66064;50.226;14.344;2023-02-23T07:46:18;52.45;;;34.28;;
77111;SDS011;66064;50.226;14.344;2023-02-23T07:48:44;56.92;;;33.15;;
77111;SDS011;66064;50.226;14.344;2023-02-23T07:51:11;60.03;;;37.28;;
77111;SDS011;66064;50.226;14.344;2023-02-23T07:53:38;61.38;;;38.90;;
77111;SDS011;66064;50.226;14.344;2023-02-23T07:56:05;54.72;;;35.15;;
77111;SDS011;66064;50.226;14.344;2023-02-23T07:58:34;53.70;;;35.15;;
77111;SDS011;66064;50.226;14.344;2023-02-23T08:01:00;60.33;;;41.08;;
77111;SDS011;66064;50.226;14.344;2023-02-23T08:03:26;46.63;;;36.78;;
77111;SDS011;66064;50.226;14.344;2023-02-23T08:05:52;50.80;;;35.05;;
77111;SDS011;66064;50.226;14.344;2023-02-23T08:08:18;47.65;;;33.00;;
77111;SDS011;66064;50.226;14.344;2023-02-23T08:10:44;49.90;;;33.20;;
77111;SDS011;66064;50.226;14.344;2023-02-23T08:13:10;46.47;;;32.47;;
77111;SDS011;66064;50.226;14.344;2023-02-23T08:15:36;44.05;;;30.77;;
77111;SDS011;66064;50.226;14.344;2023-02-23T08:18:01;45.58;;;31.83;;
77111;SDS011;66064;50.226;14.344;2023-02-23T08:20:27;44.63;;;32.65;;
77111;SDS011;66064;50.226;14.344;2023-02-23T08:22:53;41.92;;;33.05;;
77111;SDS011;66064;50.226;14.344;2023-02-23T08:25:20;42.67;;;30.58;;
77111;SDS011;66064;50.226;14.344;2023-02-23T08:27:46;37.35;;;28.02;;
77111;SDS011;66064;50.226;14.344;2023-02-23T08:30:12;39.72;;;27.75;;
77111;SDS011;66064;50.226;14.344;2023-02-23T08:32:39;41.72;;;27.80;;
77111;SDS011;66064;50.226;14.344;2023-02-23T08:35:06;41.08;;;27.27;;
77111;SDS011;66064;50.226;14.344;2023-02-23T08:37:32;44.60;;;27.52;;
77111;SDS011;66064;50.226;14.344;2023-02-23T08:39:58;37.72;;;27.15;;
77111;SDS011;66064;50.226;14.344;2023-02-23T08:42:25;40.50;;;27.50;;
77111;SDS011;66064;50.226;14.344;2023-02-23T08:44:52;39.35;;;28.27;;
77111;SDS011;66064;50.226;14.344;2023-02-23T08:47:18;35.63;;;26.73;;
77111;SDS011;66064;50.226;14.344;2023-02-23T08:49:48;38.60;;;28.40;;
77111;SDS011;66064;50.226;14.344;2023-02-23T08:52:14;40.38;;;27.70;;
77111;SDS011;66064;50.226;14.344;2023-02-23T08:54:40;34.55;;;24.25;;
77111;SDS011;66064;50.226;14.344;2023-02-23T08:57:06;32.63;;;23.73;;
77111;SDS011;66064;50.226;14.344;2023-02-23T08:59:32;39.63;;;26.15;;
77111;SDS011;66064;50.226;14.344;2023-02-23T09:01:58;33.65;;;24.40;;
77111;SDS011;66064;50.226;14.344;2023-02-23T09:04:24;37.15;;;24.75;;
77111;SDS011;66064;50.226;14.344;2023-02-23T09:06:51;37.67;;;25.88;;
77111;SDS011;66064;50.226;14.344;2023-02-23T09:09:17;30.42;;;22.95;;
77111;SDS011;66064;50.226;14.344;2023-02-23T09:11:43;36.22;;;25.25;;
77111;SDS011;66064;50.226;14.344;2023-02-23T09:14:09;35.28;;;24.77;;
77111;SDS011;66064;50.226;14.344;2023-02-23T09:16:35;42.67;;;26.20;;
77111;SDS011;66064;50.226;14.344;2023-02-23T09:19:02;33.90;;;25.88;;
77111;SDS011;66064;50.226;14.344;2023-02-23T09:21:28;32.42;;;23.10;;
77111;SDS011;66064;50.226;14.344;2023-02-23T09:23:55;29.67;;;21.67;;
77111;SDS011;66064;50.226;14.344;2023-02-23T09:26:21;34.75;;;24.35;;
77111;SDS011;66064;50.226;14.344;2023-02-23T09:28:49;31.35;;;22.60;;
77111;SDS011;66064;50.226;14.344;2023-02-23T09:31:17;28.92;;;21.15;;
77111;SDS011;66064;50.226;14.344;2023-02-23T09:33:45;28.23;;;20.02;;
77111;SDS011;66064;50.226;14.344;2023-02-23T09:36:15;27.75;;;18.35;;
77111;SDS011;66064;50.226;14.344;2023-02-23T09:38:43;26.35;;;18.88;;
77111;SDS011;66064;50.226;14.344;2023-02-23T09:46:49;18.50;;;12.77;;
77111;SDS011;66064;50.226;14.344;2023-02-23T09:49:17;17.50;;;14.40;;
77111;SDS011;66064;50.226;14.344;2023-02-23T09:51:54;26.15;;;16.80;;
77111;SDS011;66064;50.226;14.344;2023-02-23T09:54:26;22.15;;;15.23;;
77111;SDS011;66064;50.226;14.344;2023-02-23T09:56:55;22.75;;;17.30;;
77111;SDS011;66064;50.226;14.344;2023-02-23T09:59:23;26.55;;;15.98;;
77111;SDS011;66064;50.226;14.344;2023-02-23T10:01:52;46.85;;;26.83;;
77111;SDS011;66064;50.226;14.344;2023-02-23T10:10:22;34.58;;;21.60;;
77111;SDS011;66064;50.226;14.344;2023-02-23T10:21:42;26.65;;;18.83;;
77111;SDS011;66064;50.226;14.344;2023-02-23T10:24:19;26.20;;;18.30;;
77111;SDS011;66064;50.226;14.344;2023-02-23T10:26:51;32.35;;;20.88;;
77111;SDS011;66064;50.226;14.344;2023-02-23T10:29:22;29.33;;;19.13;;
77111;SDS011;66064;50.226;14.344;2023-02-23T10:31:57;21.58;;;15.35;;
77111;SDS011;66064;50.226;14.344;2023-02-23T10:34:26;21.48;;;16.55;;
77111;SDS011;66064;50.226;14.344;2023-02-23T10:36:57;24.02;;;17.05;;
77111;SDS011;66064;50.226;14.344;2023-02-23T10:39:26;23.77;;;15.45;;
77111;SDS011;66064;50.226;14.344;2023-02-23T10:42:02;31.20;;;20.42;;
77111;SDS011;66064;50.226;14.344;2023-02-23T10:44:30;34.38;;;22.48;;
77111;SDS011;66064;50.226;14.344;2023-02-23T10:46:58;27.40;;;19.90;;
77111;SDS011;66064;50.226;14.344;2023-02-23T10:49:49;25.40;;;16.65;;
77111;SDS011;66064;50.226;14.344;2023-02-23T10:55:04;23.58;;;16.05;;
77111;SDS011;66064;50.226;14.344;2023-02-23T10:57:33;24.00;;;17.10;;
77111;SDS011;66064;50.226;14.344;2023-02-23T11:02:41;24.15;;;16.45;;
77111;SDS011;66064;50.226;14.344;2023-02-23T11:05:26;23.27;;;16.98;;
77111;SDS011;66064;50.226;14.344;2023-02-23T11:16:08;24.95;;;16.85;;
77111;SDS011;66064;50.226;14.344;2023-02-23T11:18:38;20.08;;;16.40;;
77111;SDS011;66064;50.226;14.344;2023-02-23T11:21:16;21.83;;;15.60;;
77111;SDS011;66064;50.226;14.344;2023-02-23T11:23:48;26.33;;;17.25;;
77111;SDS011;66064;50.226;14.344;2023-02-23T11:26:28;27.42;;;19.02;;
77111;SDS011;66064;50.226;14.344;2023-02-23T11:29:10;23.25;;;17.50;;
77111;SDS011;66064;50.226;14.344;2023-02-23T11:31:57;26.73;;;17.00;;
77111;SDS011;66064;50.226;14.344;2023-02-23T11:34:28;71.80;;;32.75;;
77111;SDS011;66064;50.226;14.344;2023-02-23T11:37:07;31.90;;;20.20;;
77111;SDS011;66064;50.226;14.344;2023-02-23T11:39:53;23.35;;;16.38;;
77111;SDS011;66064;50.226;14.344;2023-02-23T11:42:20;25.77;;;18.70;;
77111;SDS011;66064;50.226;14.344;2023-02-23T11:44:51;27.05;;;16.73;;
77111;SDS011;66064;50.226;14.344;2023-02-23T11:47:27;25.80;;;19.63;;
77111;SDS011;66064;50.226;14.344;2023-02-23T11:49:54;22.95;;;16.90;;
77111;SDS011;66064;50.226;14.344;2023-02-23T11:52:21;26.65;;;20.85;;
77111;SDS011;66064;50.226;14.344;2023-02-23T11:57:22;26.98;;;18.52;;
77111;SDS011;66064;50.226;14.344;2023-02-23T11:59:51;22.42;;;17.50;;
77111;SDS011;66064;50.226;14.344;2023-02-23T12:02:19;22.17;;;16.58;;
77111;SDS011;66064;50.226;14.344;2023-02-23T12:04:48;23.33;;;17.33;;
77111;SDS011;66064;50.226;14.344;2023-02-23T12:10:18;20.70;;;15.02;;
77111;SDS011;66064;50.226;14.344;2023-02-23T12:15:38;28.70;;;18.90;;
77111;SDS011;66064;50.226;14.344;2023-02-23T12:20:52;27.30;;;18.80;;
77111;SDS011;66064;50.226;14.344;2023-02-23T12:23:23;28.63;;;20.83;;
77111;SDS011;66064;50.226;14.344;2023-02-23T12:25:55;21.67;;;16.75;;
77111;SDS011;66064;50.226;14.344;2023-02-23T12:28:46;27.52;;;18.67;;
77111;SDS011;66064;50.226;14.344;2023-02-23T12:31:25;30.88;;;20.95;;
77111;SDS011;66064;50.226;14.344;2023-02-23T12:34:01;28.75;;;19.17;;
77111;SDS011;66064;50.226;14.344;2023-02-23T12:36:45;35.80;;;21.45;;
77111;SDS011;66064;50.226;14.344;2023-02-23T12:39:35;34.85;;;24.55;;
77111;SDS011;66064;50.226;14.344;2023-02-23T12:42:09;24.63;;;17.50;;
77111;SDS011;66064;50.226;14.344;2023-02-23T12:47:32;23.08;;;16.30;;
77111;SDS011;66064;50.226;14.344;2023-02-23T12:52:53;36.25;;;25.25;;
77111;SDS011;66064;50.226;14.344;2023-02-23T13:00:59;22.65;;;15.02;;
77111;SDS011;66064;50.226;14.344;2023-02-23T13:06:31;32.90;;;21.40;;
77111;SDS011;66064;50.226;14.344;2023-02-23T13:09:27;36.92;;;23.90;;
77111;SDS011;66064;50.226;14.344;2023-02-23T13:17:52;45.65;;;33.38;;
77111;SDS011;66064;50.226;14.344;2023-02-23T13:20:43;23.23;;;17.17;;
77111;SDS011;66064;50.226;14.344;2023-02-23T13:23:39;37.35;;;29.75;;
77111;SDS011;66064;50.226;14.344;2023-02-23T13:26:27;34.90;;;20.48;;
77111;SDS011;66064;50.226;14.344;2023-02-23T13:29:10;24.25;;;18.85;;
77111;SDS011;66064;50.226;14.344;2023-02-23T13:31:40;20.85;;;16.10;;
77111;SDS011;66064;50.226;14.344;2023-02-23T13:34:11;20.73;;;16.25;;
77111;SDS011;66064;50.226;14.344;2023-02-23T13:36:46;25.85;;;17.80;;
77111;SDS011;66064;50.226;14.344;2023-02-23T13:39:21;29.10;;;17.85;;
77111;SDS011;66064;50.226;14.344;2023-02-23T13:42:20;25.17;;;17.73;;
77111;SDS011;66064;50.226;14.344;2023-02-23T13:45:08;25.05;;;19.08;;
77111;SDS011;66064;50.226;14.344;2023-02-23T13:47:57;23.65;;;16.50;;
77111;SDS011;66064;50.226;14.344;2023-02-23T13:56:23;25.60;;;17.30;;
77111;SDS011;66064;50.226;14.344;2023-02-23T13:58:53;24.35;;;17.55;;
77111;SDS011;66064;50.226;14.344;2023-02-23T14:01:30;23.75;;;15.77;;
77111;SDS011;66064;50.226;14.344;2023-02-23T14:04:21;22.33;;;17.33;;
77111;SDS011;66064;50.226;14.344;2023-02-23T14:06:50;25.38;;;17.85;;
77111;SDS011;66064;50.226;14.344;2023-02-23T14:09:30;27.15;;;17.17;;
77111;SDS011;66064;50.226;14.344;2023-02-23T14:18:34;22.98;;;16.98;;
77111;SDS011;66064;50.226;14.344;2023-02-23T14:20:53;23.15;;;17.63;;
77111;SDS011;66064;50.226;14.344;2023-02-23T14:28:36;29.08;;;17.23;;
77111;SDS011;66064;50.226;14.344;2023-02-23T14:44:34;23.65;;;16.10;;
77111;SDS011;66064;50.226;14.344;2023-02-23T14:47:27;27.05;;;17.63;;
77111;SDS011;66064;50.226;14.344;2023-02-23T14:49:59;28.25;;;18.02;;
77111;SDS011;66064;50.226;14.344;2023-02-23T14:52:31;26.45;;;17.42;;
77111;SDS011;66064;50.226;14.344;2023-02-23T14:55:05;24.58;;;15.88;;
77111;SDS011;66064;50.226;14.344;2023-02-23T14:57:35;23.98;;;16.63;;
77111;SDS011;66064;50.226;14.344;2023-02-23T15:00:06;26.67;;;17.92;;
77111;SDS011;66064;50.226;14.344;2023-02-23T15:02:33;28.95;;;18.98;;
77111;SDS011;66064;50.226;14.344;2023-02-23T15:04:59;32.60;;;20.27;;
77111;SDS011;66064;50.226;14.344;2023-02-23T15:07:42;28.63;;;21.65;;
77111;SDS011;66064;50.226;14.344;2023-02-23T15:10:11;31.83;;;20.27;;
77111;SDS011;66064;50.226;14.344;2023-02-23T15:12:44;30.67;;;18.75;;
77111;SDS011;66064;50.226;14.344;2023-02-23T15:15:18;31.30;;;20.40;;
77111;SDS011;66064;50.226;14.344;2023-02-23T15:20:15;32.58;;;19.67;;
77111;SDS011;66064;50.226;14.344;2023-02-23T15:25:14;29.70;;;19.35;;
77111;SDS011;66064;50.226;14.344;2023-02-23T15:27:43;30.25;;;21.08;;
77111;SDS011;66064;50.226;14.344;2023-02-23T15:30:16;28.40;;;20.85;;
77111;SDS011;66064;50.226;14.344;2023-02-23T15:32:42;26.15;;;20.15;;
77111;SDS011;66064;50.226;14.344;2023-02-23T15:35:08;31.40;;;20.48;;
77111;SDS011;66064;50.226;14.344;2023-02-23T15:37:45;30.65;;;19.70;;
77111;SDS011;66064;50.226;14.344;2023-02-23T15:40:18;33.08;;;24.10;;
77111;SDS011;66064;50.226;14.344;2023-02-23T15:42:48;38.97;;;20.83;;
77111;SDS011;66064;50.226;14.344;2023-02-23T15:48:08;37.20;;;23.67;;
77111;SDS011;66064;50.226;14.344;2023-02-23T15:53:34;43.03;;;25.23;;
77111;SDS011;66064;50.226;14.344;2023-02-23T15:56:12;39.63;;;25.60;;
77111;SDS011;66064;50.226;14.344;2023-02-23T15:58:51;48.15;;;23.50;;
77111;SDS011;66064;50.226;14.344;2023-02-23T16:01:24;38.45;;;23.75;;
77111;SDS011;66064;50.226;14.344;2023-02-23T16:06:34;38.50;;;22.65;;
77111;SDS011;66064;50.226;14.344;2023-02-23T16:09:23;39.55;;;24.05;;
77111;SDS011;66064;50.226;14.344;2023-02-23T16:12:01;38.65;;;26.33;;
77111;SDS011;66064;50.226;14.344;2023-02-23T16:15:22;37.72;;;26.40;;
77111;SDS011;66064;50.226;14.344;2023-02-23T16:17:38;40.28;;;26.15;;
77111;SDS011;66064;50.226;14.344;2023-02-23T16:23:02;38.70;;;25.15;;
77111;SDS011;66064;50.226;14.344;2023-02-23T16:25:30;37.72;;;25.33;;
77111;SDS011;66064;50.226;14.344;2023-02-23T16:28:18;38.08;;;23.80;;
77111;SDS011;66064;50.226;14.344;2023-02-23T16:30:55;45.42;;;26.48;;
77111;SDS011;66064;50.226;14.344;2023-02-23T16:33:24;41.80;;;24.02;;
77111;SDS011;66064;50.226;14.344;2023-02-23T16:39:01;40.33;;;24.65;;
77111;SDS011;66064;50.226;14.344;2023-02-23T16:41:31;35.90;;;23.20;;
77111;SDS011;66064;50.226;14.344;2023-02-23T16:44:02;36.97;;;22.90;;
77111;SDS011;66064;50.226;14.344;2023-02-23T16:46:31;38.67;;;25.00;;
77111;SDS011;66064;50.226;14.344;2023-02-23T16:49:17;69.32;;;33.05;;
77111;SDS011;66064;50.226;14.344;2023-02-23T16:51:44;169.80;;;66.68;;
77111;SDS011;66064;50.226;14.344;2023-02-23T16:54:10;78.97;;;38.80;;
77111;SDS011;66064;50.226;14.344;2023-02-23T16:56:37;75.13;;;41.15;;
77111;SDS011;66064;50.226;14.344;2023-02-23T16:59:04;53.97;;;30.85;;
77111;SDS011;66064;50.226;14.344;2023-02-23T17:01:34;56.55;;;32.17;;
77111;SDS011;66064;50.226;14.344;2023-02-23T17:04:00;63.90;;;33.63;;
77111;SDS011;66064;50.226;14.344;2023-02-23T17:06:27;45.97;;;28.88;;
77111;SDS011;66064;50.226;14.344;2023-02-23T17:08:53;47.65;;;31.63;;
77111;SDS011;66064;50.226;14.344;2023-02-23T17:11:19;51.70;;;31.13;;
77111;SDS011;66064;50.226;14.344;2023-02-23T17:13:45;48.40;;;30.23;;
77111;SDS011;66064;50.226;14.344;2023-02-23T17:16:11;47.80;;;27.90;;